Kansas City, Missouri
Traffic Map
Current Weather Conditions
Kansas City, Missouri
Overcast
Overcast
45°
Feels Like: 39°
Wind Chill: 39° Ceiling: 3000
Heat Index: 45° Visibility: 10mi
Dew Point: 36° Wind: 12mph
Humidity: 71% Direction: 310° (NW)
Pressure: 29.66in Gusts: 0mph
Raw Report DataKMKC 270534Z 31010KT 10SM BKN030 OVC037 07/02 A2966 RMK AO2 T00720022
Traffic Incident Summary
Active as of:
Severity:
Category:
InformationThere was an issue retrieving the traffic information for this location. Please try a different location or try again shortly.
Advertisements
Track Severe Weather on mobile